createdAt,value
2023-06-06T00:01:15.717Z,3.90
2023-06-06T00:03:47.544Z,3.80
2023-06-06T00:06:21.982Z,3.90
2023-06-06T00:08:54.089Z,3.90
2023-06-06T00:11:25.378Z,4.40
2023-06-06T00:13:57.899Z,3.90
2023-06-06T00:16:29.232Z,4.30
2023-06-06T00:19:00.710Z,3.60
2023-06-06T00:21:34.008Z,4.20
2023-06-06T00:24:05.219Z,4.40
2023-06-06T00:26:36.294Z,4.50
2023-06-06T00:29:07.667Z,4.10
2023-06-06T00:31:38.836Z,4.20
2023-06-06T00:34:09.777Z,4.10
2023-06-06T00:36:40.910Z,4.30
2023-06-06T00:39:12.140Z,4.10
2023-06-06T00:41:43.671Z,4.20
2023-06-06T00:44:14.745Z,4.80
2023-06-06T00:46:46.355Z,3.90
2023-06-06T00:49:19.510Z,4.10
2023-06-06T00:51:50.762Z,4.30
2023-06-06T00:54:23.083Z,4.10
2023-06-06T00:56:55.378Z,4.30
2023-06-06T00:59:27.512Z,4.00
2023-06-06T01:02:00.301Z,4.00
2023-06-06T01:04:31.906Z,3.80
2023-06-06T01:07:03.561Z,4.30
2023-06-06T01:09:35.558Z,4.20
2023-06-06T01:12:14.232Z,4.20
2023-06-06T01:15:14.014Z,4.10
2023-06-06T01:17:47.737Z,4.30
2023-06-06T01:20:22.868Z,4.30
2023-06-06T01:22:55.975Z,3.80
2023-06-06T01:25:28.125Z,4.20
2023-06-06T01:27:59.381Z,4.40
2023-06-06T01:30:31.634Z,3.80
2023-06-06T01:33:12.226Z,4.10
2023-06-06T01:35:54.178Z,4.50
2023-06-06T01:38:28.737Z,3.60
2023-06-06T01:41:03.789Z,3.90
2023-06-06T01:43:36.589Z,3.80
2023-06-06T01:46:10.228Z,4.20
2023-06-06T01:48:43.065Z,4.50
2023-06-06T01:51:14.898Z,4.30
2023-06-06T01:53:46.435Z,4.20
2023-06-06T01:56:17.501Z,4.50
2023-06-06T01:58:49.707Z,4.50
2023-06-06T02:01:22.106Z,3.90
2023-06-06T02:03:53.644Z,3.40
2023-06-06T02:06:25.122Z,4.10
2023-06-06T02:08:56.384Z,4.70
2023-06-06T02:11:28.228Z,3.90
2023-06-06T02:14:01.232Z,3.30
2023-06-06T02:16:33.262Z,4.10
2023-06-06T02:19:04.922Z,3.60
2023-06-06T02:21:36.600Z,3.90
2023-06-06T02:24:08.891Z,4.00
2023-06-06T02:26:42.995Z,3.50
2023-06-06T02:29:14.058Z,3.80
2023-06-06T02:31:45.225Z,4.20
2023-06-06T02:34:16.299Z,4.20
2023-06-06T02:36:50.550Z,3.30
2023-06-06T02:39:21.553Z,3.50
2023-06-06T02:41:53.514Z,3.70
2023-06-06T02:44:25.393Z,3.50
2023-06-06T02:46:56.568Z,3.90
2023-06-06T02:49:28.635Z,3.70
2023-06-06T02:51:59.724Z,3.40
2023-06-06T02:54:31.069Z,3.50
2023-06-06T02:57:03.359Z,2.90
2023-06-06T02:59:34.416Z,3.50
2023-06-06T03:02:05.802Z,3.30
2023-06-06T03:04:37.192Z,3.80
2023-06-06T03:07:11.356Z,3.60
2023-06-06T03:09:42.492Z,3.60
2023-06-06T03:12:13.657Z,3.60
2023-06-06T03:14:55.669Z,3.60
2023-06-06T03:17:28.414Z,3.70
2023-06-06T03:19:59.586Z,3.80
2023-06-06T03:22:31.204Z,3.50
2023-06-06T03:25:02.834Z,3.80
2023-06-06T03:27:34.042Z,3.30
2023-06-06T03:30:08.099Z,2.90
2023-06-06T03:32:39.363Z,3.30
2023-06-06T03:35:10.902Z,3.50
2023-06-06T03:37:42.480Z,3.20
2023-06-06T03:40:14.222Z,3.20
2023-06-06T03:42:45.277Z,3.30
2023-06-06T03:45:16.309Z,3.70
2023-06-06T03:47:47.536Z,3.50
2023-06-06T03:50:19.220Z,3.60
2023-06-06T03:52:50.404Z,3.20
2023-06-06T03:55:21.572Z,3.30
2023-06-06T03:57:53.856Z,3.10
2023-06-06T04:00:25.079Z,3.80
2023-06-06T04:02:56.059Z,3.40
2023-06-06T04:05:27.423Z,3.90
2023-06-06T04:07:58.502Z,3.90
2023-06-06T04:10:29.631Z,3.90
2023-06-06T04:13:02.209Z,3.40
2023-06-06T04:15:33.201Z,3.70
2023-06-06T04:18:04.255Z,3.50
2023-06-06T04:20:35.407Z,3.60
2023-06-06T04:23:06.750Z,3.50
2023-06-06T04:25:37.890Z,3.90
2023-06-06T04:28:09.718Z,4.20
2023-06-06T04:30:42.047Z,3.70
2023-06-06T04:33:13.290Z,3.60
2023-06-06T04:35:44.317Z,3.90
2023-06-06T04:38:20.239Z,3.70
2023-06-06T04:41:05.088Z,3.30
2023-06-06T04:43:43.821Z,3.50
2023-06-06T04:46:14.883Z,4.20
2023-06-06T04:48:46.154Z,4.30
2023-06-06T04:51:17.202Z,4.00
2023-06-06T04:53:48.355Z,4.50
2023-06-06T04:56:20.043Z,4.00
2023-06-06T04:58:53.804Z,4.50
2023-06-06T05:01:25.161Z,4.00
2023-06-06T05:03:56.323Z,3.70
2023-06-06T05:06:28.537Z,3.90
2023-06-06T05:09:01.145Z,3.90
2023-06-06T05:11:32.545Z,4.10
2023-06-06T05:14:04.084Z,4.30
2023-06-06T05:16:35.111Z,3.60
2023-06-06T05:19:06.287Z,4.10
2023-06-06T05:21:37.369Z,3.90
2023-06-06T05:24:09.198Z,4.40
2023-06-06T05:26:40.335Z,3.80
2023-06-06T05:29:11.604Z,4.30
2023-06-06T05:31:42.737Z,4.00
2023-06-06T05:34:13.816Z,3.90
2023-06-06T05:36:45.057Z,3.40
2023-06-06T05:39:19.104Z,4.20
2023-06-06T05:41:55.725Z,3.70
2023-06-06T05:44:26.992Z,4.10
2023-06-06T05:46:58.055Z,3.70
2023-06-06T05:49:30.257Z,3.70
2023-06-06T05:52:02.525Z,4.50
2023-06-06T05:54:48.921Z,4.10
2023-06-06T05:57:24.802Z,3.60
2023-06-06T05:59:56.622Z,4.20
2023-06-06T06:02:27.976Z,4.10
2023-06-06T06:04:59.326Z,3.40
2023-06-06T06:07:30.481Z,4.10
2023-06-06T06:10:01.353Z,3.90
2023-06-06T06:12:33.861Z,3.60
2023-06-06T06:15:05.116Z,4.40
2023-06-06T06:17:36.300Z,4.00
2023-06-06T06:20:11.473Z,3.80
2023-06-06T06:22:42.477Z,3.90
2023-06-06T06:25:15.108Z,4.00
2023-06-06T06:27:47.134Z,3.50
2023-06-06T06:30:19.777Z,3.50
2023-06-06T06:32:51.028Z,3.80
2023-06-06T06:35:22.122Z,4.30
2023-06-06T06:37:53.250Z,4.00
2023-06-06T06:40:24.306Z,4.50
2023-06-06T06:42:55.402Z,3.90
2023-06-06T06:45:28.145Z,4.40
2023-06-06T06:48:00.370Z,3.70
2023-06-06T06:50:31.810Z,3.90
2023-06-06T06:53:04.495Z,3.50
2023-06-06T06:55:38.914Z,3.70
2023-06-06T06:58:09.902Z,4.70
2023-06-06T07:00:41.006Z,4.40
2023-06-06T07:03:11.988Z,4.10
2023-06-06T07:05:44.100Z,4.70
2023-06-06T07:08:15.346Z,3.70
2023-06-06T07:10:46.462Z,4.30
2023-06-06T07:13:19.557Z,4.30
2023-06-06T07:15:51.210Z,4.20
2023-06-06T07:18:22.164Z,4.50
2023-06-06T07:20:53.743Z,4.20
2023-06-06T07:23:24.866Z,4.70
2023-06-06T07:25:57.000Z,5.00
2023-06-06T07:28:28.081Z,4.80
2023-06-06T07:30:59.612Z,4.20
2023-06-06T07:33:30.680Z,4.10
2023-06-06T07:36:02.191Z,4.60
2023-06-06T07:38:36.342Z,4.30
2023-06-06T07:41:07.734Z,4.50
2023-06-06T07:43:38.734Z,4.30
2023-06-06T07:46:09.900Z,4.20
2023-06-06T07:48:40.976Z,5.00
2023-06-06T07:51:12.193Z,4.40
2023-06-06T07:53:45.006Z,4.80
2023-06-06T07:56:17.794Z,5.10
2023-06-06T07:58:53.481Z,5.20
2023-06-06T08:01:24.737Z,5.20
2023-06-06T08:03:57.086Z,5.60
2023-06-06T08:06:29.615Z,3.70
2023-06-06T08:09:00.609Z,4.50
2023-06-06T08:11:31.898Z,4.10
2023-06-06T08:14:02.746Z,4.30
2023-06-06T08:16:33.784Z,4.40
2023-06-06T08:19:04.796Z,4.70
2023-06-06T08:21:37.934Z,4.10
2023-06-06T08:24:09.359Z,4.20
2023-06-06T08:26:40.618Z,4.40
2023-06-06T08:29:11.539Z,4.30
2023-06-06T08:31:42.694Z,4.80
2023-06-06T08:34:13.703Z,4.50
2023-06-06T08:36:45.607Z,4.80
2023-06-06T08:39:16.934Z,4.40
2023-06-06T08:41:53.148Z,4.60
2023-06-06T08:44:25.702Z,4.80
2023-06-06T08:46:59.235Z,4.60
2023-06-06T08:49:31.031Z,4.30
2023-06-06T08:52:03.494Z,4.70
2023-06-06T08:54:36.118Z,5.30
2023-06-06T08:57:09.876Z,5.30
2023-06-06T08:59:42.484Z,5.00
2023-06-06T09:02:13.765Z,5.40
2023-06-06T09:04:46.060Z,5.00
2023-06-06T09:07:17.800Z,5.00
2023-06-06T09:09:50.598Z,5.70
2023-06-06T09:12:21.869Z,5.60
2023-06-06T09:14:52.855Z,5.60
2023-06-06T09:17:24.080Z,5.30
2023-06-06T09:19:55.229Z,4.40
2023-06-06T09:22:27.479Z,5.20
2023-06-06T09:25:00.257Z,4.90
2023-06-06T09:27:32.092Z,4.50
2023-06-06T09:30:03.236Z,4.40
2023-06-06T09:32:35.043Z,4.60
2023-06-06T09:35:07.467Z,4.80
2023-06-06T09:37:42.424Z,4.80
2023-06-06T09:40:18.728Z,5.00
2023-06-06T09:42:51.694Z,5.00
2023-06-06T09:45:24.098Z,4.90
2023-06-06T09:47:55.282Z,4.70
2023-06-06T09:50:27.978Z,5.00
2023-06-06T09:52:59.281Z,4.50
2023-06-06T09:55:30.449Z,4.40
2023-06-06T09:58:02.626Z,4.60
2023-06-06T10:00:39.016Z,4.40
2023-06-06T10:03:11.866Z,4.30
2023-06-06T10:05:43.232Z,3.80
2023-06-06T10:08:15.439Z,4.70
2023-06-06T10:10:49.772Z,4.60
2023-06-06T10:13:24.071Z,4.50
2023-06-06T10:15:56.912Z,3.70
2023-06-06T10:18:30.345Z,4.80
2023-06-06T10:21:04.079Z,4.20
2023-06-06T10:23:35.176Z,4.10
2023-06-06T10:26:11.243Z,3.80
2023-06-06T10:28:50.553Z,4.00
2023-06-06T10:31:31.322Z,3.90
2023-06-06T10:34:05.550Z,4.10
2023-06-06T10:36:45.927Z,4.60
2023-06-06T10:39:21.842Z,4.80
2023-06-06T10:41:55.587Z,4.00
2023-06-06T10:44:29.373Z,3.90
2023-06-06T10:47:29.691Z,4.30
2023-06-06T10:50:23.510Z,4.50
2023-06-06T10:52:57.260Z,4.40
2023-06-06T10:55:47.481Z,3.90
2023-06-06T10:58:28.802Z,4.10
2023-06-06T11:01:07.707Z,4.20
2023-06-06T11:03:41.254Z,3.40
2023-06-06T11:06:15.684Z,3.50
2023-06-06T11:08:55.009Z,4.20
2023-06-06T11:11:31.860Z,3.40
2023-06-06T11:14:06.434Z,3.60
2023-06-06T11:17:12.912Z,3.30
2023-06-06T11:19:44.635Z,4.10
2023-06-06T11:22:25.815Z,3.60
2023-06-06T11:24:59.061Z,3.50
2023-06-06T11:27:30.385Z,3.60
2023-06-06T11:30:01.855Z,3.80
2023-06-06T11:32:36.370Z,3.70
2023-06-06T11:35:11.270Z,3.70
2023-06-06T11:37:42.555Z,3.80
2023-06-06T11:40:15.985Z,3.70
2023-06-06T11:42:47.700Z,3.70
2023-06-06T11:45:19.713Z,3.80
2023-06-06T11:47:56.124Z,3.20
2023-06-06T11:50:34.526Z,3.40
2023-06-06T11:53:06.926Z,3.40
2023-06-06T11:55:41.354Z,3.20
2023-06-06T11:58:12.448Z,3.20
2023-06-06T12:00:44.652Z,3.30
2023-06-06T12:03:19.566Z,3.30
2023-06-06T12:06:01.747Z,3.30
2023-06-06T12:08:35.912Z,3.70
2023-06-06T12:11:27.995Z,3.60
2023-06-06T12:14:00.124Z,3.10
2023-06-06T12:16:31.784Z,3.30
2023-06-06T12:19:02.938Z,3.10
2023-06-06T12:21:47.371Z,3.20
2023-06-06T12:24:22.990Z,3.60
2023-06-06T12:26:57.532Z,3.10
2023-06-06T12:29:31.398Z,3.20
2023-06-06T12:32:19.557Z,3.40
2023-06-06T12:34:59.957Z,3.40
2023-06-06T12:37:41.915Z,3.50
2023-06-06T12:40:20.324Z,3.20
2023-06-06T12:42:56.068Z,3.40
2023-06-06T12:45:28.717Z,3.20
2023-06-06T12:48:01.112Z,3.10
2023-06-06T12:50:32.367Z,3.30
2023-06-06T12:53:04.572Z,3.30
2023-06-06T12:55:35.750Z,3.80
2023-06-06T12:58:07.134Z,3.70
2023-06-06T13:00:39.351Z,3.70
2023-06-06T13:03:22.241Z,3.80
2023-06-06T13:05:54.767Z,3.40
2023-06-06T13:08:37.137Z,3.70
2023-06-06T13:11:09.878Z,3.00
2023-06-06T13:13:41.566Z,3.50
2023-06-06T13:16:12.804Z,3.30
2023-06-06T13:18:43.942Z,3.80
2023-06-06T13:21:15.314Z,3.40
2023-06-06T13:23:46.964Z,3.30
2023-06-06T13:26:18.130Z,3.50
2023-06-06T13:28:49.721Z,3.90
2023-06-06T13:31:20.927Z,3.50
2023-06-06T13:33:52.279Z,3.70
2023-06-06T13:36:23.452Z,3.40
2023-06-06T13:38:54.662Z,5.70
2023-06-06T13:41:27.110Z,3.90
2023-06-06T13:43:58.193Z,4.00
2023-06-06T13:46:29.421Z,3.80
2023-06-06T13:49:03.425Z,4.00
2023-06-06T13:51:35.378Z,3.80
2023-06-06T13:54:06.809Z,3.20
2023-06-06T13:56:37.849Z,3.50
2023-06-06T13:59:09.243Z,3.60
2023-06-06T14:01:43.097Z,3.60
2023-06-06T14:04:14.711Z,4.00
2023-06-06T14:06:46.499Z,3.80
2023-06-06T14:09:20.134Z,4.20
2023-06-06T14:11:52.085Z,3.80
2023-06-06T14:14:24.429Z,4.00
2023-06-06T14:16:55.965Z,3.30
2023-06-06T14:19:36.536Z,3.50
2023-06-06T14:22:22.019Z,3.90
2023-06-06T14:24:55.550Z,3.40
2023-06-06T14:27:29.784Z,3.40
2023-06-06T14:30:01.403Z,3.50
2023-06-06T14:32:34.137Z,3.60
2023-06-06T14:35:07.651Z,3.50
2023-06-06T14:37:39.258Z,3.80
2023-06-06T14:40:13.262Z,3.70
2023-06-06T14:42:45.639Z,4.00
2023-06-06T14:45:17.046Z,3.70
2023-06-06T14:47:48.190Z,3.40
2023-06-06T14:50:19.609Z,3.90
2023-06-06T14:52:50.803Z,4.20
2023-06-06T14:55:22.116Z,3.90
2023-06-06T14:57:53.803Z,4.00
2023-06-06T15:00:25.135Z,4.00
2023-06-06T15:02:56.352Z,4.00
2023-06-06T15:05:30.958Z,3.80
2023-06-06T15:08:02.490Z,3.30
2023-06-06T15:10:33.863Z,3.40
2023-06-06T15:13:04.975Z,3.50
2023-06-06T15:15:36.221Z,4.20
2023-06-06T15:18:07.783Z,4.00
2023-06-06T15:20:38.890Z,3.80
2023-06-06T15:23:10.061Z,4.00
2023-06-06T15:25:41.269Z,3.50
2023-06-06T15:28:12.477Z,4.00
2023-06-06T15:30:44.363Z,4.20
2023-06-06T15:33:15.709Z,4.00
2023-06-06T15:35:46.963Z,3.90
2023-06-06T15:38:18.904Z,3.70
2023-06-06T15:40:51.455Z,4.30
2023-06-06T15:43:23.008Z,3.80
2023-06-06T15:45:54.230Z,4.10
2023-06-06T15:48:25.793Z,3.80
2023-06-06T15:50:57.284Z,4.10
2023-06-06T15:53:28.478Z,3.90
2023-06-06T15:55:59.555Z,4.00
2023-06-06T15:58:30.690Z,4.80
2023-06-06T16:01:02.373Z,4.40
2023-06-06T16:03:33.944Z,4.50
2023-06-06T16:06:05.118Z,4.60
2023-06-06T16:08:36.718Z,4.40
2023-06-06T16:11:07.645Z,4.10
2023-06-06T16:13:38.857Z,4.30
2023-06-06T16:16:12.288Z,4.40
2023-06-06T16:18:45.020Z,3.80
2023-06-06T16:21:16.139Z,3.90
2023-06-06T16:23:47.708Z,3.80
2023-06-06T16:26:19.040Z,3.80
2023-06-06T16:28:50.613Z,4.00
2023-06-06T16:31:21.787Z,4.30
2023-06-06T16:33:52.940Z,4.00
2023-06-06T16:36:24.339Z,3.90
2023-06-06T16:38:55.390Z,4.10
2023-06-06T16:41:27.083Z,4.00
2023-06-06T16:43:58.788Z,4.30
2023-06-06T16:46:30.712Z,4.50
2023-06-06T16:49:01.753Z,4.30
2023-06-06T16:51:33.270Z,4.10
2023-06-06T16:54:05.856Z,4.50
2023-06-06T16:56:38.266Z,4.60
2023-06-06T16:59:10.677Z,4.50
2023-06-06T17:01:41.944Z,4.10
2023-06-06T17:04:15.526Z,4.40
2023-06-06T17:06:47.508Z,5.00
2023-06-06T17:09:21.713Z,3.90
2023-06-06T17:11:52.907Z,4.10
2023-06-06T17:14:23.878Z,4.90
2023-06-06T17:16:55.005Z,4.90
2023-06-06T17:19:26.548Z,4.50
2023-06-06T17:21:57.760Z,4.70
2023-06-06T17:24:28.958Z,4.30
2023-06-06T17:27:00.144Z,4.30
2023-06-06T17:29:32.333Z,4.50
2023-06-06T17:32:03.532Z,4.10
2023-06-06T17:34:35.194Z,4.00
2023-06-06T17:37:06.642Z,4.30
2023-06-06T17:39:37.834Z,4.30
2023-06-06T17:42:10.008Z,4.50
2023-06-06T17:44:41.313Z,4.80
2023-06-06T17:47:12.622Z,4.70
2023-06-06T17:49:43.678Z,5.00
2023-06-06T17:52:16.179Z,5.50
2023-06-06T17:54:47.391Z,5.10
2023-06-06T17:57:18.684Z,5.30
2023-06-06T17:59:50.034Z,4.70
2023-06-06T18:02:21.469Z,4.60
2023-06-06T18:04:52.946Z,4.90
2023-06-06T18:07:24.081Z,4.40
2023-06-06T18:09:55.446Z,4.50
2023-06-06T18:12:27.192Z,5.10
2023-06-06T18:14:59.006Z,4.90
2023-06-06T18:17:30.597Z,4.90
2023-06-06T18:20:02.064Z,4.60
2023-06-06T18:22:34.845Z,4.70
2023-06-06T18:25:06.967Z,4.60
2023-06-06T18:27:38.741Z,4.80
2023-06-06T18:30:14.359Z,4.30
2023-06-06T18:32:46.127Z,4.70
2023-06-06T18:35:17.573Z,5.00
2023-06-06T18:37:49.189Z,4.90
2023-06-06T18:40:22.928Z,4.60
2023-06-06T18:42:55.074Z,4.80
2023-06-06T18:45:26.776Z,4.50
2023-06-06T18:48:03.153Z,4.70
2023-06-06T18:50:34.564Z,4.90
2023-06-06T18:53:06.185Z,4.30
2023-06-06T18:55:38.084Z,4.50
2023-06-06T18:58:09.640Z,4.40
2023-06-06T19:00:41.578Z,4.20
2023-06-06T19:03:13.385Z,4.40
2023-06-06T19:05:45.189Z,4.70
2023-06-06T19:08:17.630Z,4.40
2023-06-06T19:10:48.898Z,4.30
2023-06-06T19:13:20.456Z,4.10
2023-06-06T19:15:54.330Z,4.60
2023-06-06T19:21:01.724Z,4.80
2023-06-06T19:23:33.114Z,4.80
2023-06-06T19:26:04.291Z,4.90
2023-06-06T19:28:36.547Z,5.10
2023-06-06T19:31:08.030Z,5.20
2023-06-06T19:33:39.390Z,4.90
2023-06-06T19:36:11.247Z,4.80
2023-06-06T19:38:42.600Z,5.00
2023-06-06T19:41:13.785Z,5.30
2023-06-06T19:43:47.768Z,5.00
2023-06-06T19:46:20.501Z,4.90
2023-06-06T19:48:52.542Z,5.60
2023-06-06T19:51:24.155Z,4.90
2023-06-06T19:53:55.304Z,4.60
2023-06-06T19:56:27.765Z,4.50
2023-06-06T19:58:58.964Z,4.60
2023-06-06T20:01:30.628Z,5.50
2023-06-06T20:04:02.035Z,5.50
2023-06-06T20:06:36.437Z,5.00
2023-06-06T20:09:07.914Z,5.70
2023-06-06T20:11:40.744Z,5.10
2023-06-06T20:14:12.574Z,5.20
2023-06-06T20:16:43.917Z,5.00
2023-06-06T20:19:15.160Z,5.30
2023-06-06T20:21:46.568Z,5.10
2023-06-06T20:24:18.230Z,4.70
2023-06-06T20:26:49.886Z,4.80
2023-06-06T20:29:21.887Z,5.20
2023-06-06T20:31:52.978Z,4.90
2023-06-06T20:34:24.153Z,5.80
2023-06-06T20:36:55.466Z,5.40
2023-06-06T20:39:35.582Z,5.50
2023-06-06T20:42:08.036Z,5.30
2023-06-06T20:44:39.223Z,5.30
2023-06-06T20:47:10.870Z,5.30
2023-06-06T20:49:42.222Z,5.00
2023-06-06T20:52:14.310Z,4.90
2023-06-06T20:54:45.753Z,5.80
2023-06-06T20:57:16.754Z,5.00
2023-06-06T20:59:48.002Z,5.40
2023-06-06T21:02:19.184Z,4.80
2023-06-06T21:04:50.839Z,4.90
2023-06-06T21:07:22.054Z,4.90
2023-06-06T21:09:53.086Z,4.80
2023-06-06T21:12:24.558Z,4.80
2023-06-06T21:14:55.477Z,4.40
2023-06-06T21:17:26.920Z,4.50
2023-06-06T21:20:00.513Z,4.90
2023-06-06T21:22:32.126Z,4.60
2023-06-06T21:25:04.165Z,4.40
2023-06-06T21:27:35.618Z,5.30
2023-06-06T21:30:08.783Z,4.70
2023-06-06T21:32:40.613Z,4.60
2023-06-06T21:35:12.383Z,4.40
2023-06-06T21:37:43.670Z,4.70
2023-06-06T21:40:16.130Z,5.00
2023-06-06T21:42:48.109Z,5.10
2023-06-06T21:45:19.219Z,4.30
2023-06-06T21:47:50.342Z,5.40
2023-06-06T21:50:21.468Z,4.90
2023-06-06T21:52:52.632Z,4.70
2023-06-06T21:55:24.254Z,4.80
2023-06-06T21:57:55.148Z,4.60
2023-06-06T22:00:28.055Z,4.60
2023-06-06T22:02:59.378Z,4.80
2023-06-06T22:05:30.763Z,4.60
2023-06-06T22:08:01.693Z,5.10
2023-06-06T22:10:33.039Z,4.70
2023-06-06T22:13:04.294Z,5.20
2023-06-06T22:15:35.971Z,4.60
2023-06-06T22:18:07.444Z,4.60
2023-06-06T22:20:38.743Z,5.00
2023-06-06T22:23:09.721Z,5.10
2023-06-06T22:25:41.151Z,5.00
2023-06-06T22:28:13.262Z,4.80
2023-06-06T22:30:44.371Z,4.30
2023-06-06T22:33:15.407Z,4.40
2023-06-06T22:35:46.505Z,4.70
2023-06-06T22:38:17.670Z,4.50
2023-06-06T22:40:48.725Z,4.80
2023-06-06T22:43:19.770Z,4.30
2023-06-06T22:45:51.453Z,4.40
2023-06-06T22:48:22.686Z,4.70
2023-06-06T22:50:53.937Z,4.80
2023-06-06T22:53:25.476Z,4.70
2023-06-06T22:55:56.576Z,5.00
2023-06-06T22:58:27.778Z,4.70
2023-06-06T23:00:58.810Z,4.80
2023-06-06T23:03:30.158Z,4.60
2023-06-06T23:06:01.446Z,4.80
2023-06-06T23:08:33.555Z,4.90
2023-06-06T23:11:04.531Z,4.80
2023-06-06T23:13:36.120Z,4.60
2023-06-06T23:16:08.998Z,5.10
2023-06-06T23:18:40.162Z,4.70
2023-06-06T23:21:11.194Z,4.70
2023-06-06T23:23:42.209Z,5.30
2023-06-06T23:26:13.435Z,4.80
2023-06-06T23:28:44.683Z,5.10
2023-06-06T23:31:15.934Z,5.20
2023-06-06T23:33:47.315Z,4.70
2023-06-06T23:36:18.382Z,4.90
2023-06-06T23:38:49.420Z,4.90
2023-06-06T23:41:20.411Z,4.50
2023-06-06T23:43:51.476Z,4.50
2023-06-06T23:46:22.533Z,4.80
2023-06-06T23:48:53.669Z,4.70
2023-06-06T23:51:24.650Z,5.00
2023-06-06T23:53:55.887Z,4.20
2023-06-06T23:56:26.934Z,4.50
2023-06-06T23:58:57.916Z,4.10
